Time;durP1;ratioP1;P1;durP2;ratioP2;P2;SDS_P1;SDS_P2;PMS_P1;PMS_P2;Temp;Humidity;BMP_temperature;BMP_pressure;BME280_temperature;BME280_humidity;BME280_pressure;Samples;Min_cycle;Max_cycle;Signal;HPM_P1;HPM_P2
2021/08/22 00:00:10;;;;;;;5.75;3.65;;;19.70;99.90;;;;;;6216930;23;20363;-87
2021/08/22 00:02:36;;;;;;;5.55;3.15;;;19.70;99.90;;;;;;6217500;23;20059;-87
2021/08/22 00:05:03;;;;;;;6.00;3.53;;;19.60;99.90;;;;;;6217154;23;20431;-86
2021/08/22 00:07:29;;;;;;;5.45;3.00;;;19.60;99.90;;;;;;6217142;23;20054;-87
2021/08/22 00:09:55;;;;;;;4.07;2.60;;;19.50;99.90;;;;;;6216687;23;20043;-87
2021/08/22 00:12:20;;;;;;;5.20;2.80;;;19.50;99.90;;;;;;6244024;23;20000;-86
2021/08/22 00:14:46;;;;;;;5.75;3.10;;;19.40;99.90;;;;;;6244130;23;20067;-87
2021/08/22 00:17:12;;;;;;;5.50;3.13;;;19.40;99.90;;;;;;6217102;23;20432;-87
2021/08/22 00:19:37;;;;;;;5.75;2.88;;;19.40;99.90;;;;;;6216989;23;20099;-87
2021/08/22 00:22:03;;;;;;;4.85;2.80;;;19.30;99.90;;;;;;6217644;23;20090;-87
2021/08/22 00:24:29;;;;;;;5.13;3.08;;;19.40;99.90;;;;;;6217523;23;20050;-87
2021/08/22 00:26:54;;;;;;;5.22;2.90;;;19.30;99.90;;;;;;6248146;23;20011;-87
2021/08/22 00:29:20;;;;;;;4.80;3.03;;;19.30;99.90;;;;;;6221760;23;20058;-86
2021/08/22 00:31:46;;;;;;;4.25;2.42;;;19.30;99.90;;;;;;6219995;23;20015;-87
2021/08/22 00:34:12;;;;;;;4.30;2.30;;;19.30;99.90;;;;;;6218212;23;20004;-87
2021/08/22 00:36:37;;;;;;;3.38;1.98;;;19.20;99.90;;;;;;6220101;23;20337;-87
2021/08/22 00:39:03;;;;;;;6.18;2.00;;;19.20;99.90;;;;;;6218366;23;20008;-87
2021/08/22 00:41:30;;;;;;;3.10;2.10;;;19.20;99.90;;;;;;6217720;23;20426;-87
2021/08/22 00:43:55;;;;;;;4.25;2.30;;;19.10;99.90;;;;;;6217384;23;20131;-87
2021/08/22 00:46:21;;;;;;;3.80;1.90;;;19.10;99.90;;;;;;6217520;23;20004;-87
2021/08/22 00:48:47;;;;;;;3.25;2.10;;;19.10;99.90;;;;;;6217723;23;20131;-87
2021/08/22 00:51:15;;;;;;;4.50;2.38;;;19.10;99.90;;;;;;6217213;23;20101;-87
2021/08/22 00:53:43;;;;;;;4.78;2.50;;;19.00;99.90;;;;;;6217153;23;20435;-87
2021/08/22 00:56:10;;;;;;;4.43;2.30;;;19.00;99.90;;;;;;6244099;23;20016;-87
2021/08/22 00:58:35;;;;;;;4.18;2.25;;;19.00;99.90;;;;;;6217089;23;20058;-87
2021/08/22 01:01:04;;;;;;;5.65;2.65;;;19.00;99.90;;;;;;6217067;23;19996;-87
2021/08/22 01:03:49;;;;;;;4.30;2.25;;;19.00;99.90;;;;;;6217222;23;20004;-87
2021/08/22 01:06:32;;;;;;;4.78;2.20;;;18.90;99.90;;;;;;6216940;23;20111;-87
2021/08/22 01:09:11;;;;;;;4.53;2.33;;;18.90;99.90;;;;;;6215930;23;20000;-87
2021/08/22 01:11:39;;;;;;;4.75;2.45;;;18.90;99.90;;;;;;6217093;23;20004;-86
2021/08/22 01:14:10;;;;;;;6.20;2.47;;;18.90;99.90;;;;;;6216279;23;20106;-87
2021/08/22 01:16:40;;;;;;;5.03;2.80;;;18.90;99.90;;;;;;6243898;23;20470;-87
2021/08/22 01:19:34;;;;;;;4.30;2.50;;;18.80;99.90;;;;;;6243189;23;20032;-87
2021/08/22 01:22:02;;;;;;;4.43;2.60;;;18.80;99.90;;;;;;6217200;23;20000;-86
2021/08/22 01:24:29;;;;;;;4.68;2.53;;;18.80;99.90;;;;;;6216502;23;20028;-87
2021/08/22 01:26:57;;;;;;;4.82;2.40;;;18.70;99.90;;;;;;6216993;23;20012;-87
2021/08/22 01:29:34;;;;;;;6.05;2.60;;;18.80;99.90;;;;;;6242996;23;20000;-87
2021/08/22 01:32:02;;;;;;;4.28;2.65;;;18.80;99.90;;;;;;6216937;23;20045;-87
2021/08/22 01:34:29;;;;;;;5.22;2.80;;;18.80;99.90;;;;;;6216359;23;20008;-86
2021/08/22 01:36:57;;;;;;;4.45;2.83;;;18.80;99.90;;;;;;6216483;23;20089;-87
2021/08/22 01:39:23;;;;;;;5.82;3.13;;;18.80;99.90;;;;;;6242741;23;20078;-87
2021/08/22 01:41:49;;;;;;;4.85;2.50;;;18.70;99.90;;;;;;6243764;23;20458;-87
2021/08/22 01:44:20;;;;;;;3.83;2.53;;;18.70;99.90;;;;;;6216341;23;20028;-87
2021/08/22 01:46:47;;;;;;;3.75;2.30;;;18.70;99.90;;;;;;6216527;23;20008;-87
2021/08/22 01:49:13;;;;;;;4.43;2.70;;;18.70;99.90;;;;;;6216080;23;20091;-87
2021/08/22 01:51:40;;;;;;;4.15;2.42;;;18.70;99.90;;;;;;6216672;23;20004;-86
2021/08/22 01:54:09;;;;;;;3.20;2.53;;;18.70;99.90;;;;;;6216412;23;20142;-87
2021/08/22 01:56:35;;;;;;;4.82;2.40;;;18.70;99.90;;;;;;6243557;23;20004;-87
2021/08/22 01:59:02;;;;;;;5.03;2.80;;;18.70;99.90;;;;;;6215898;23;20004;-86
2021/08/22 02:01:28;;;;;;;3.80;2.50;;;18.60;99.90;;;;;;6216652;23;20071;-87
2021/08/22 02:04:00;;;;;;;4.70;2.60;;;18.60;99.90;;;;;;6216345;23;20000;-87
2021/08/22 02:06:35;;;;;;;5.20;2.40;;;18.60;99.90;;;;;;6216535;23;20382;-87
2021/08/22 02:09:06;;;;;;;6.45;2.90;;;18.70;99.90;;;;;;6215339;23;20008;-87
2021/08/22 02:11:53;;;;;;;6.55;3.10;;;18.70;99.90;;;;;;6216253;23;20004;-87
2021/08/22 02:14:22;;;;;;;5.65;2.90;;;18.70;99.90;;;;;;6242249;23;20004;-87
2021/08/22 02:16:51;;;;;;;4.50;2.72;;;18.70;99.90;;;;;;6242706;23;20000;-87
2021/08/22 02:19:18;;;;;;;6.57;2.72;;;18.70;99.90;;;;;;6240861;23;20018;-87
2021/08/22 02:21:45;;;;;;;6.32;3.22;;;18.70;99.90;;;;;;6217647;23;20000;-87
2021/08/22 02:24:11;;;;;;;5.45;3.08;;;18.70;99.90;;;;;;6217058;23;20014;-87
2021/08/22 02:26:37;;;;;;;4.65;2.90;;;18.70;99.90;;;;;;6217921;23;20011;-87
2021/08/22 02:29:03;;;;;;;3.70;2.50;;;18.60;99.90;;;;;;6217411;23;20423;-87
2021/08/22 02:31:29;;;;;;;5.32;2.67;;;18.60;99.90;;;;;;6218379;23;20025;-87
2021/08/22 02:33:59;;;;;;;4.72;2.60;;;18.60;99.90;;;;;;6217829;23;20404;-87
2021/08/22 02:36:26;;;;;;;4.97;3.17;;;18.60;99.90;;;;;;6245028;23;20058;-87
2021/08/22 02:38:52;;;;;;;5.60;2.70;;;18.60;99.90;;;;;;6217482;23;20510;-87
2021/08/22 02:41:18;;;;;;;5.65;2.70;;;18.70;99.90;;;;;;6244538;23;20020;-88
2021/08/22 02:43:44;;;;;;;5.40;3.08;;;18.60;99.90;;;;;;6218036;23;20135;-88
2021/08/22 02:46:09;;;;;;;6.72;3.00;;;18.70;99.90;;;;;;6217989;23;20423;-87
2021/08/22 02:48:35;;;;;;;5.13;3.30;;;18.60;99.90;;;;;;6218173;23;20412;-87
2021/08/22 02:51:02;;;;;;;6.80;4.32;;;18.60;99.90;;;;;;6244903;23;20004;-87
2021/08/22 02:53:27;;;;;;;8.10;4.90;;;18.70;99.90;;;;;;6218322;23;20040;-87
2021/08/22 02:55:53;;;;;;;7.65;4.63;;;18.60;99.90;;;;;;6217973;23;20338;-87
2021/08/22 02:58:19;;;;;;;8.60;4.80;;;18.70;99.90;;;;;;6217949;23;20007;-88
2021/08/22 03:00:45;;;;;;;10.02;6.10;;;18.70;99.90;;;;;;6244854;23;20117;-87
2021/08/22 03:03:11;;;;;;;10.75;6.63;;;18.70;99.90;;;;;;6218047;23;20335;-87
2021/08/22 03:05:36;;;;;;;13.73;7.43;;;18.70;99.90;;;;;;6244801;23;20000;-86
2021/08/22 03:08:03;;;;;;;11.30;8.25;;;18.70;99.90;;;;;;6244965;23;20000;-87
2021/08/22 03:10:28;;;;;;;15.32;9.63;;;18.70;99.90;;;;;;6244337;23;20434;-86
2021/08/22 03:12:54;;;;;;;12.82;8.85;;;18.70;99.90;;;;;;6218060;23;20012;-87
2021/08/22 03:15:20;;;;;;;12.93;8.60;;;18.80;99.90;;;;;;6218009;23;20001;-87
2021/08/22 03:17:45;;;;;;;15.65;10.95;;;18.70;99.90;;;;;;6217835;23;20065;-87
2021/08/22 03:20:11;;;;;;;13.65;10.30;;;18.70;99.90;;;;;;6217269;23;20304;-87
2021/08/22 03:22:40;;;;;;;14.48;10.27;;;18.70;99.90;;;;;;6217781;23;20001;-87
2021/08/22 03:25:06;;;;;;;;;;;18.70;99.90;;;;;;6244908;23;19997;-87
2021/08/22 03:27:31;;;;;;;15.75;10.00;;;18.70;99.90;;;;;;6217732;23;20219;-86
2021/08/22 03:29:57;;;;;;;15.77;10.70;;;18.70;99.90;;;;;;6217032;23;20035;-87
2021/08/22 03:32:22;;;;;;;14.85;10.25;;;18.70;99.90;;;;;;6217267;23;20008;-87
2021/08/22 03:34:48;;;;;;;16.63;11.95;;;18.70;99.90;;;;;;6217609;23;20440;-87
2021/08/22 03:37:14;;;;;;;17.15;11.57;;;18.70;99.90;;;;;;6244521;23;20008;-87
2021/08/22 03:39:39;;;;;;;16.83;12.43;;;18.70;99.90;;;;;;6243925;23;19996;-87
2021/08/22 03:42:05;;;;;;;17.08;12.73;;;18.70;99.90;;;;;;6217720;23;20007;-86
2021/08/22 03:44:31;;;;;;;17.20;11.40;;;18.70;99.90;;;;;;6217386;23;20004;-86
2021/08/22 03:46:56;;;;;;;14.20;10.80;;;18.70;99.90;;;;;;6218158;23;20012;-87
2021/08/22 03:49:22;;;;;;;18.60;11.98;;;18.70;99.90;;;;;;6217277;23;20011;-87
2021/08/22 03:51:47;;;;;;;17.17;11.77;;;18.70;99.90;;;;;;6217517;23;20066;-86
2021/08/22 03:54:13;;;;;;;16.25;11.32;;;18.70;99.90;;;;;;6217077;23;20008;-87
2021/08/22 03:56:39;;;;;;;16.30;11.30;;;18.70;99.90;;;;;;6217507;23;20440;-87
2021/08/22 03:59:08;;;;;;;13.63;11.00;;;18.70;99.90;;;;;;6216734;23;20490;-87
2021/08/22 04:01:35;;;;;;;15.10;11.30;;;18.70;99.90;;;;;;6244092;23;20023;-87
2021/08/22 04:04:01;;;;;;;13.65;10.15;;;18.70;99.90;;;;;;6216962;23;20000;-87
2021/08/22 04:06:27;;;;;;;12.55;10.02;;;18.70;99.90;;;;;;6244024;23;20004;-87
2021/08/22 04:08:53;;;;;;;15.57;10.88;;;18.70;99.90;;;;;;6216723;23;20603;-87
2021/08/22 04:11:19;;;;;;;14.40;9.45;;;18.80;99.90;;;;;;6216589;23;20004;-87
2021/08/22 04:13:44;;;;;;;13.45;10.57;;;18.70;99.90;;;;;;6217188;23;20150;-87
2021/08/22 04:16:10;;;;;;;14.13;10.68;;;18.70;99.90;;;;;;6244056;23;20032;-87
2021/08/22 04:18:35;;;;;;;15.27;10.93;;;18.70;99.90;;;;;;6243727;23;20446;-87
2021/08/22 04:21:01;;;;;;;13.23;10.40;;;18.80;99.90;;;;;;6216727;23;20006;-87
2021/08/22 04:23:27;;;;;;;14.18;10.57;;;18.70;99.90;;;;;;6244084;23;20024;-86
2021/08/22 04:25:53;;;;;;;13.55;10.50;;;18.70;99.90;;;;;;6243918;23;20023;-88
2021/08/22 04:28:19;;;;;;;15.35;10.52;;;18.70;99.90;;;;;;6217548;23;20011;-87
2021/08/22 04:30:46;;;;;;;13.18;10.18;;;18.70;99.90;;;;;;6244421;23;20000;-87
2021/08/22 04:33:11;;;;;;;13.57;10.43;;;18.70;99.90;;;;;;6218241;23;20046;-87
2021/08/22 04:35:37;;;;;;;15.98;10.80;;;18.70;99.90;;;;;;6216574;23;20378;-87
2021/08/22 04:38:03;;;;;;;15.52;12.30;;;18.70;99.90;;;;;;6243994;23;20019;-87
2021/08/22 04:40:29;;;;;;;16.10;12.10;;;18.70;99.90;;;;;;6216327;23;20617;-87
2021/08/22 04:42:55;;;;;;;19.25;12.88;;;18.70;99.90;;;;;;6217100;23;20004;-87
2021/08/22 04:45:21;;;;;;;18.10;12.63;;;18.70;99.90;;;;;;6216779;23;20105;-87
2021/08/22 04:47:46;;;;;;;18.42;12.95;;;18.70;99.90;;;;;;6216481;23;20034;-87
2021/08/22 04:50:12;;;;;;;18.30;12.98;;;18.70;99.90;;;;;;6242766;23;20070;-86
2021/08/22 04:52:38;;;;;;;21.25;14.32;;;18.70;99.90;;;;;;6243350;23;20079;-87
2021/08/22 04:55:05;;;;;;;21.33;14.55;;;18.70;99.90;;;;;;6216008;23;20011;-87
2021/08/22 04:57:31;;;;;;;17.30;13.38;;;18.80;99.90;;;;;;6216424;23;20042;-86
2021/08/22 04:59:57;;;;;;;18.35;14.25;;;18.70;99.90;;;;;;6215758;23;20000;-87
2021/08/22 05:02:22;;;;;;;19.13;15.30;;;18.70;99.90;;;;;;6216589;23;20011;-86
2021/08/22 05:04:48;;;;;;;21.23;14.98;;;18.80;99.90;;;;;;6216312;23;20008;-87
2021/08/22 05:07:13;;;;;;;21.00;17.05;;;18.80;99.90;;;;;;6216522;23;20339;-87
2021/08/22 05:09:39;;;;;;;21.60;16.55;;;18.80;99.90;;;;;;6216288;23;20012;-87
2021/08/22 05:12:05;;;;;;;20.00;15.50;;;18.80;99.90;;;;;;6216650;23;20010;-87
2021/08/22 05:14:33;;;;;;;23.17;16.05;;;18.80;99.90;;;;;;6243094;23;20000;-86
2021/08/22 05:16:59;;;;;;;24.27;16.05;;;18.80;99.90;;;;;;6216351;23;20001;-87
2021/08/22 05:19:25;;;;;;;24.00;16.50;;;18.70;99.90;;;;;;6215809;23;20457;-87
2021/08/22 05:21:51;;;;;;;23.58;16.70;;;18.70;99.90;;;;;;6216541;23;20090;-86
2021/08/22 05:24:17;;;;;;;24.70;17.02;;;18.80;99.90;;;;;;6215635;23;20036;-86
2021/08/22 05:26:42;;;;;;;23.42;17.00;;;18.80;99.90;;;;;;6216400;23;20339;-86
2021/08/22 05:29:08;;;;;;;26.33;17.30;;;18.80;99.90;;;;;;6215826;23;20062;-87
2021/08/22 05:31:33;;;;;;;26.73;16.92;;;18.80;99.90;;;;;;6216449;23;20015;-87
2021/08/22 05:33:59;;;;;;;23.25;16.65;;;18.80;99.90;;;;;;6216074;23;20023;-86
2021/08/22 05:36:25;;;;;;;22.45;16.95;;;18.80;99.90;;;;;;6216240;23;20086;-86
2021/08/22 05:38:52;;;;;;;31.20;18.08;;;18.80;99.90;;;;;;6215689;23;20320;-87
2021/08/22 05:41:18;;;;;;;26.67;18.67;;;18.80;99.90;;;;;;6215880;23;20050;-87
2021/08/22 05:43:43;;;;;;;25.67;17.50;;;18.80;99.90;;;;;;6216027;23;20008;-87
2021/08/22 05:46:10;;;;;;;25.98;18.02;;;18.90;99.90;;;;;;6215884;23;20004;-87
2021/08/22 05:48:36;;;;;;;24.98;18.17;;;18.90;99.90;;;;;;6242798;23;20089;-86
2021/08/22 05:51:02;;;;;;;22.23;16.33;;;18.90;99.90;;;;;;6242672;23;20402;-87
2021/08/22 05:53:28;;;;;;;23.88;15.50;;;18.90;99.90;;;;;;6243014;23;20001;-87
2021/08/22 05:55:56;;;;;;;23.10;15.68;;;18.90;99.90;;;;;;6215491;23;20030;-86
2021/08/22 05:58:22;;;;;;;23.80;16.52;;;18.90;99.90;;;;;;6216271;23;20008;-87
2021/08/22 06:00:47;;;;;;;30.30;19.67;;;18.90;99.90;;;;;;6215868;23;20378;-87
2021/08/22 06:03:13;;;;;;;27.95;18.20;;;19.00;99.90;;;;;;6216440;23;20008;-87
2021/08/22 06:05:39;;;;;;;31.45;20.40;;;19.00;99.90;;;;;;6243162;23;20135;-86
2021/08/22 06:08:04;;;;;;;31.33;19.60;;;19.00;99.90;;;;;;6243188;23;20347;-86
2021/08/22 06:10:30;;;;;;;28.30;18.20;;;19.00;99.90;;;;;;6215598;23;20449;-87
2021/08/22 06:12:56;;;;;;;29.40;18.63;;;19.00;99.90;;;;;;6216184;23;20432;-87
2021/08/22 06:15:22;;;;;;;30.05;19.15;;;19.00;99.90;;;;;;6215721;23;20420;-86
2021/08/22 06:17:47;;;;;;;31.83;19.90;;;19.00;99.90;;;;;;6216126;23;20023;-87
2021/08/22 06:20:13;;;;;;;31.15;19.67;;;19.00;99.90;;;;;;6215684;23;20000;-87
2021/08/22 06:22:39;;;;;;;31.05;20.60;;;19.00;99.90;;;;;;6243020;23;19992;-87
2021/08/22 06:25:05;;;;;;;32.78;21.52;;;19.00;99.90;;;;;;6215435;23;20011;-86
2021/08/22 06:27:30;;;;;;;36.17;23.88;;;19.00;99.90;;;;;;6216007;23;20455;-87
2021/08/22 06:29:56;;;;;;;35.22;23.15;;;19.00;99.90;;;;;;6242687;23;20007;-86
2021/08/22 06:32:21;;;;;;;32.40;22.80;;;19.00;99.90;;;;;;6216341;23;20069;-87
2021/08/22 06:34:47;;;;;;;35.83;23.73;;;19.00;99.90;;;;;;6215927;23;20008;-86
2021/08/22 06:37:13;;;;;;;35.38;23.80;;;19.00;99.90;;;;;;6215970;23;20008;-86
2021/08/22 06:39:41;;;;;;;35.22;24.08;;;19.00;99.90;;;;;;6215170;23;20011;-86
2021/08/22 06:42:08;;;;;;;35.03;23.42;;;19.00;99.90;;;;;;6215965;23;20010;-87
2021/08/22 06:44:33;;;;;;;34.78;23.25;;;19.00;99.90;;;;;;6215756;23;20005;-87
2021/08/22 06:47:00;;;;;;;29.95;22.23;;;19.00;99.90;;;;;;6216546;23;20030;-86
2021/08/22 06:49:26;;;;;;;29.63;21.25;;;19.00;99.90;;;;;;6215007;23;20444;-86
2021/08/22 06:51:51;;;;;;;31.20;20.80;;;19.00;99.90;;;;;;6216247;23;20055;-86
2021/08/22 06:54:17;;;;;;;28.50;20.88;;;19.00;99.90;;;;;;6242439;23;20004;-85
2021/08/22 06:56:43;;;;;;;23.55;18.67;;;19.10;99.90;;;;;;6217177;23;20094;-84
2021/08/22 06:59:08;;;;;;;27.92;20.65;;;19.10;99.90;;;;;;6215505;23;20012;-85
2021/08/22 07:01:36;;;;;;;28.85;19.23;;;19.10;99.90;;;;;;6243028;23;20146;-85
2021/08/22 07:04:01;;;;;;;27.77;19.40;;;19.10;99.90;;;;;;6215388;23;20050;-86
2021/08/22 07:06:27;;;;;;;25.08;17.77;;;19.10;99.90;;;;;;6243100;23;20327;-85
2021/08/22 07:08:52;;;;;;;25.88;18.58;;;19.10;99.90;;;;;;6218246;23;20035;-85
2021/08/22 07:11:18;;;;;;;25.08;18.10;;;19.10;99.90;;;;;;6217976;23;20008;-85
2021/08/22 07:13:44;;;;;;;25.35;18.83;;;19.10;99.90;;;;;;6217968;23;20008;-85
2021/08/22 07:16:09;;;;;;;25.17;19.35;;;19.10;99.90;;;;;;6219103;23;20008;-85
2021/08/22 07:18:35;;;;;;;32.58;19.52;;;19.10;99.90;;;;;;6245334;23;20441;-86
2021/08/22 07:21:02;;;;;;;27.80;18.17;;;19.10;99.90;;;;;;6218300;23;20001;-85
2021/08/22 07:23:28;;;;;;;24.90;16.20;;;19.10;99.90;;;;;;6217855;23;20004;-85
2021/08/22 07:25:53;;;;;;;23.25;16.83;;;19.10;99.90;;;;;;6243627;23;20004;-86
2021/08/22 07:28:19;;;;;;;22.48;15.13;;;19.00;99.90;;;;;;6244365;23;20007;-85
2021/08/22 07:30:45;;;;;;;22.45;15.65;;;19.00;99.90;;;;;;6216443;23;20595;-86
2021/08/22 07:33:10;;;;;;;24.00;16.23;;;19.10;99.90;;;;;;6244163;23;20024;-86
2021/08/22 07:35:36;;;;;;;18.60;13.98;;;19.10;99.90;;;;;;6216664;23;20008;-85
2021/08/22 07:38:01;;;;;;;18.70;13.70;;;19.10;99.90;;;;;;6217158;23;20008;-86
2021/08/22 07:40:27;;;;;;;20.00;13.20;;;19.10;99.90;;;;;;6215702;23;20309;-86
2021/08/22 07:42:53;;;;;;;19.00;13.52;;;19.10;99.90;;;;;;6217341;23;20100;-86
2021/08/22 07:45:18;;;;;;;16.15;12.48;;;19.20;99.90;;;;;;6244279;23;20443;-86
2021/08/22 07:47:44;;;;;;;16.08;12.07;;;19.20;99.90;;;;;;6217618;23;20095;-85
2021/08/22 07:50:10;;;;;;;16.38;11.95;;;19.30;99.90;;;;;;6244283;23;20362;-86
2021/08/22 07:52:36;;;;;;;16.10;10.88;;;19.30;99.90;;;;;;6217316;23;20007;-86
2021/08/22 07:55:02;;;;;;;15.27;10.25;;;19.30;99.90;;;;;;6243919;23;20004;-86
2021/08/22 07:57:29;;;;;;;12.63;9.82;;;19.30;99.90;;;;;;6217246;23;20327;-86
2021/08/22 07:59:55;;;;;;;13.10;9.32;;;19.30;99.90;;;;;;6244016;23;19996;-86
2021/08/22 08:02:20;;;;;;;13.00;8.88;;;19.30;99.90;;;;;;6217372;23;20015;-86
2021/08/22 08:04:46;;;;;;;12.95;9.75;;;19.30;99.90;;;;;;6216997;23;20011;-87
2021/08/22 08:07:12;;;;;;;10.25;8.63;;;19.30;99.90;;;;;;6244195;23;20007;-86
2021/08/22 08:09:38;;;;;;;15.00;9.80;;;19.30;99.90;;;;;;6217107;23;20011;-85
2021/08/22 08:12:04;;;;;;;11.43;8.48;;;19.30;99.90;;;;;;6217239;23;20067;-86
2021/08/22 08:14:29;;;;;;;15.48;11.23;;;19.30;99.90;;;;;;6244171;23;20007;-86
2021/08/22 08:16:55;;;;;;;11.95;8.10;;;19.30;99.90;;;;;;6217329;23;20004;-86
2021/08/22 08:19:21;;;;;;;13.65;8.88;;;19.30;99.90;;;;;;6216665;23;20117;-86
2021/08/22 08:21:46;;;;;;;11.75;7.82;;;19.30;99.90;;;;;;6244114;23;20070;-86
2021/08/22 08:24:12;;;;;;;10.50;7.88;;;19.40;99.90;;;;;;6245132;23;20010;-85
2021/08/22 08:26:38;;;;;;;13.23;8.18;;;19.40;99.90;;;;;;6244706;23;20474;-85
2021/08/22 08:29:04;;;;;;;11.05;7.90;;;19.50;99.90;;;;;;6217112;23;20008;-86
2021/08/22 08:31:29;;;;;;;11.57;7.57;;;19.50;99.90;;;;;;6244201;23;20331;-86
2021/08/22 08:33:55;;;;;;;11.15;7.50;;;19.50;99.90;;;;;;6217233;23;20000;-86
2021/08/22 08:36:21;;;;;;;9.98;6.95;;;19.50;99.90;;;;;;6216770;23;20115;-86
2021/08/22 08:38:46;;;;;;;8.45;5.65;;;19.50;99.90;;;;;;6216705;23;20636;-86
2021/08/22 08:41:12;;;;;;;8.77;6.00;;;19.60;99.90;;;;;;6216475;23;19996;-86
2021/08/22 08:43:38;;;;;;;8.95;5.75;;;19.60;99.90;;;;;;6217109;23;20004;-86
2021/08/22 08:46:11;;;;;;;10.18;6.00;;;19.60;99.90;;;;;;6243685;23;19997;-86
2021/08/22 08:48:37;;;;;;;7.72;5.82;;;19.70;99.90;;;;;;6216903;23;20019;-86
2021/08/22 08:51:06;;;;;;;12.68;7.80;;;19.80;99.90;;;;;;6217949;23;20004;-85
2021/08/22 08:53:34;;;;;;;9.80;6.93;;;19.80;99.90;;;;;;6244255;23;20075;-86
2021/08/22 08:56:02;;;;;;;12.10;7.53;;;19.90;99.90;;;;;;6216258;23;20069;-86
2021/08/22 08:58:27;;;;;;;10.27;6.95;;;19.90;99.90;;;;;;6216334;23;20004;-87
2021/08/22 09:00:53;;;;;;;9.65;5.88;;;19.90;99.90;;;;;;6243146;23;20022;-86
2021/08/22 09:03:20;;;;;;;10.23;6.95;;;19.90;99.90;;;;;;6217358;23;20416;-86
2021/08/22 09:06:16;;;;;;;8.90;6.57;;;20.00;99.90;;;;;;6243729;23;20526;-86
2021/08/22 09:09:14;;;;;;;12.18;7.10;;;20.10;99.90;;;;;;6244035;23;20374;-88
2021/08/22 09:12:05;;;;;;;10.00;6.75;;;20.10;99.90;;;;;;6217397;23;20429;-85
2021/08/22 09:15:08;;;;;;;9.38;6.40;;;20.20;99.90;;;;;;6245856;23;20007;-86
2021/08/22 09:18:11;;;;;;;8.27;6.13;;;20.30;99.90;;;;;;6244507;23;20331;-84
2021/08/22 09:20:55;;;;;;;7.93;5.40;;;20.30;99.90;;;;;;6220257;23;20000;-85
2021/08/22 09:23:45;;;;;;;8.57;5.20;;;20.40;99.90;;;;;;6219916;23;20007;-85
2021/08/22 09:26:51;;;;;;;11.25;5.63;;;20.50;99.90;;;;;;6217911;23;20035;-85
2021/08/22 09:29:53;;;;;;;10.98;6.45;;;20.50;99.90;;;;;;6217463;23;20004;-86
2021/08/22 09:33:10;;;;;;;8.70;5.50;;;20.60;99.90;;;;;;6218071;23;20035;-85
2021/08/22 09:36:17;;;;;;;10.23;6.90;;;20.60;99.90;;;;;;6136726;23;20284;-85
2021/08/22 09:39:20;;;;;;;8.88;5.97;;;20.50;99.90;;;;;;6218222;23;20004;-87
2021/08/22 09:42:07;;;;;;;7.00;5.45;;;20.50;99.90;;;;;;6257970;23;20407;-85
2021/08/22 09:45:10;;;;;;;8.18;5.45;;;20.50;99.90;;;;;;6254958;23;20380;-86
2021/08/22 09:47:51;;;;;;;9.23;5.93;;;20.50;99.90;;;;;;6232218;23;20000;-86
2021/08/22 09:50:54;;;;;;;11.05;5.07;;;20.60;99.90;;;;;;6238669;23;19999;-85
2021/08/22 09:53:38;;;;;;;7.70;4.88;;;20.70;99.90;;;;;;6238422;23;20008;-88
2021/08/22 09:56:41;;;;;;;6.95;4.88;;;20.70;99.90;;;;;;6260297;23;20000;-90
2021/08/22 09:59:32;;;;;;;7.97;5.43;;;20.70;99.00;;;;;;6248580;23;20055;-86
2021/08/22 10:02:23;;;;;;;6.95;5.07;;;20.70;99.20;;;;;;6220668;23;20000;-87
2021/08/22 10:05:10;;;;;;;9.68;4.47;;;20.70;99.30;;;;;;6207326;23;20339;-86
2021/08/22 10:07:47;;;;;;;5.53;3.60;;;20.70;99.90;;;;;;6244124;23;20040;-86
2021/08/22 10:10:20;;;;;;;5.90;3.85;;;20.80;98.60;;;;;;6217054;23;20057;-86
2021/08/22 10:12:46;;;;;;;6.80;3.50;;;20.80;98.00;;;;;;6232912;23;20018;-86
2021/08/22 10:15:15;;;;;;;5.28;3.00;;;20.90;97.40;;;;;;6234675;23;19996;-86
2021/08/22 10:17:45;;;;;;;6.30;3.47;;;20.90;96.80;;;;;;6233197;23;20020;-85
2021/08/22 10:20:11;;;;;;;;;;;21.00;96.90;;;;;;6231348;23;20288;-86
2021/08/22 10:22:37;;;;;;;5.15;3.17;;;21.00;96.90;;;;;;6231490;23;19907;-86
2021/08/22 10:25:11;;;;;;;5.68;3.30;;;21.10;96.40;;;;;;6231772;23;20035;-86
2021/08/22 10:27:41;;;;;;;5.07;3.13;;;21.10;95.70;;;;;;6251043;23;20000;-86
2021/08/22 10:30:12;;;;;;;6.10;3.35;;;21.10;95.60;;;;;;6216067;23;20019;-85
2021/08/22 10:32:56;;;;;;;7.18;3.35;;;21.00;95.50;;;;;;6216517;23;20023;-86
2021/08/22 10:35:25;;;;;;;8.10;3.22;;;21.00;95.80;;;;;;6215565;23;20027;-85
2021/08/22 10:37:51;;;;;;;5.18;3.00;;;21.00;95.70;;;;;;6216175;23;20382;-86
2021/08/22 10:40:28;;;;;;;5.82;2.97;;;21.00;95.90;;;;;;6242027;23;20399;-85
2021/08/22 10:42:56;;;;;;;7.68;3.42;;;20.90;95.60;;;;;;6245220;23;20016;-86
2021/08/22 10:45:47;;;;;;;6.32;2.95;;;20.90;95.80;;;;;;6217771;23;20035;-85
2021/08/22 10:48:21;;;;;;;5.15;3.03;;;20.80;95.50;;;;;;6245187;23;20032;-86
2021/08/22 10:51:11;;;;;;;6.05;3.50;;;20.80;94.60;;;;;;6217668;23;20382;-85
2021/08/22 10:53:38;;;;;;;5.10;2.92;;;20.70;94.50;;;;;;6225547;23;20087;-85
2021/08/22 10:56:22;;;;;;;6.53;3.15;;;20.70;94.80;;;;;;6217633;23;20416;-85
2021/08/22 10:59:09;;;;;;;5.30;2.90;;;20.70;95.00;;;;;;6218364;23;20729;-87
2021/08/22 11:01:39;;;;;;;6.35;3.15;;;20.70;95.20;;;;;;6245221;23;20000;-87
2021/08/22 11:04:12;;;;;;;5.53;3.10;;;20.80;95.30;;;;;;6244016;23;20001;-85
2021/08/22 11:07:02;;;;;;;5.53;3.20;;;20.90;95.60;;;;;;6218680;23;20008;-86
2021/08/22 11:09:41;;;;;;;8.70;3.45;;;21.00;95.30;;;;;;6216963;23;20472;-87
2021/08/22 11:12:30;;;;;;;6.32;3.33;;;21.10;95.00;;;;;;6217835;23;20008;-86
2021/08/22 11:14:57;;;;;;;;;;;21.20;95.50;;;;;;6218380;23;20443;-87
2021/08/22 11:17:23;;;;;;;6.00;2.90;;;21.20;94.70;;;;;;6246618;23;20226;-86
2021/08/22 11:19:49;;;;;;;7.95;3.15;;;21.20;94.70;;;;;;6221558;23;20031;-86
2021/08/22 11:22:26;;;;;;;5.93;2.70;;;21.30;94.50;;;;;;6218329;23;20093;-86
2021/08/22 11:24:53;;;;;;;8.15;3.20;;;21.40;94.00;;;;;;6217602;23;20038;-86
2021/08/22 11:27:21;;;;;;;4.57;2.85;;;21.50;92.90;;;;;;6217912;23;20091;-86
2021/08/22 11:29:55;;;;;;;9.45;3.20;;;21.50;92.40;;;;;;6217463;23;20439;-86
2021/08/22 11:32:20;;;;;;;6.50;2.67;;;21.50;92.00;;;;;;6245016;23;20001;-86
2021/08/22 11:34:46;;;;;;;7.45;3.08;;;21.50;91.90;;;;;;6218487;23;20519;-86
2021/08/22 11:37:19;;;;;;;5.28;2.83;;;21.50;92.10;;;;;;6217961;23;20000;-86
2021/08/22 11:39:45;;;;;;;5.30;3.00;;;21.50;92.40;;;;;;6244363;23;20339;-85
2021/08/22 11:42:12;;;;;;;4.72;3.00;;;21.60;92.50;;;;;;6245105;23;20004;-85
2021/08/22 11:44:38;;;;;;;5.97;3.00;;;21.70;93.10;;;;;;6218217;23;20137;-85
2021/08/22 11:47:04;;;;;;;6.40;3.25;;;21.70;92.60;;;;;;6217647;23;20083;-85
2021/08/22 11:49:30;;;;;;;6.70;2.92;;;21.70;93.10;;;;;;6217349;23;20004;-85
2021/08/22 11:51:56;;;;;;;7.75;3.28;;;21.60;92.90;;;;;;6244980;23;20331;-85
2021/08/22 11:54:22;;;;;;;9.55;3.60;;;21.60;93.00;;;;;;6216840;23;20011;-86
2021/08/22 11:56:49;;;;;;;7.45;3.30;;;21.60;93.50;;;;;;6214005;23;20492;-85
2021/08/22 11:59:29;;;;;;;9.77;3.50;;;21.60;93.30;;;;;;6216634;23;20435;-84
2021/08/22 12:02:19;;;;;;;9.30;3.85;;;21.60;93.00;;;;;;6217980;23;20015;-86
2021/08/22 12:04:45;;;;;;;7.55;3.00;;;21.60;93.20;;;;;;6243974;23;20407;-85
2021/08/22 12:07:11;;;;;;;9.50;3.08;;;21.50;93.30;;;;;;6216549;23;20004;-85
2021/08/22 12:09:36;;;;;;;6.57;2.92;;;21.50;92.90;;;;;;6242458;23;20080;-85
2021/08/22 12:12:02;;;;;;;6.65;3.30;;;21.50;93.20;;;;;;6216597;23;20008;-86
2021/08/22 12:14:34;;;;;;;7.15;3.30;;;21.50;92.80;;;;;;6215657;23;20008;-86
2021/08/22 12:17:01;;;;;;;5.53;3.00;;;21.50;92.60;;;;;;6242987;23;20194;-86
2021/08/22 12:19:29;;;;;;;8.27;3.15;;;21.50;92.80;;;;;;6242136;23;20008;-85
2021/08/22 12:22:07;;;;;;;7.13;2.90;;;21.60;92.50;;;;;;6216959;23;20494;-86
2021/08/22 12:24:33;;;;;;;6.50;2.80;;;21.60;92.20;;;;;;6215879;23;20004;-86
2021/08/22 12:27:01;;;;;;;7.20;3.40;;;21.70;91.70;;;;;;6243687;23;20000;-86
2021/08/22 12:29:26;;;;;;;5.50;2.95;;;21.70;91.90;;;;;;6216189;23;20320;-86
2021/08/22 12:31:55;;;;;;;6.13;2.88;;;21.70;91.70;;;;;;6217366;23;20011;-86
2021/08/22 12:34:21;;;;;;;7.55;3.22;;;21.80;91.90;;;;;;6216948;23;20087;-87
2021/08/22 12:36:48;;;;;;;6.85;3.10;;;21.80;92.10;;;;;;6218403;23;20008;-86
2021/08/22 12:39:16;;;;;;;4.97;2.70;;;21.80;92.10;;;;;;6244393;23;20028;-86
2021/08/22 12:41:46;;;;;;;;;;;21.90;92.30;;;;;;6245622;23;20065;-85
2021/08/22 12:44:21;;;;;;;6.53;3.17;;;21.90;92.80;;;;;;6243578;23;19975;-84
2021/08/22 12:46:50;;;;;;;7.10;3.40;;;21.90;92.10;;;;;;6216163;23;20091;-87
2021/08/22 12:49:16;;;;;;;6.82;2.92;;;21.90;92.00;;;;;;6215894;23;20086;-85
2021/08/22 12:52:03;;;;;;;6.80;2.70;;;21.90;92.50;;;;;;6216644;23;20005;-85